sensor_id;sensor_type;location;lat;lon;timestamp;P1;durP1;ratioP1;P2;durP2;ratioP2
33190;SDS011;19554;42.652;23.364;2023-05-10T00:01:46;8.98;;;6.90;;
33190;SDS011;19554;42.652;23.364;2023-05-10T00:04:12;8.40;;;6.57;;
33190;SDS011;19554;42.652;23.364;2023-05-10T00:06:37;8.05;;;7.05;;
33190;SDS011;19554;42.652;23.364;2023-05-10T00:09:03;10.80;;;6.47;;
33190;SDS011;19554;42.652;23.364;2023-05-10T00:11:28;8.07;;;6.20;;
33190;SDS011;19554;42.652;23.364;2023-05-10T00:13:54;10.20;;;7.25;;
33190;SDS011;19554;42.652;23.364;2023-05-10T00:16:19;7.22;;;6.25;;
33190;SDS011;19554;42.652;23.364;2023-05-10T00:18:44;7.85;;;6.90;;
33190;SDS011;19554;42.652;23.364;2023-05-10T00:21:10;7.40;;;6.70;;
33190;SDS011;19554;42.652;23.364;2023-05-10T00:23:35;7.63;;;6.93;;
33190;SDS011;19554;42.652;23.364;2023-05-10T00:26:01;9.68;;;7.90;;
33190;SDS011;19554;42.652;23.364;2023-05-10T00:28:27;9.55;;;8.60;;
33190;SDS011;19554;42.652;23.364;2023-05-10T00:30:53;10.95;;;7.57;;
33190;SDS011;19554;42.652;23.364;2023-05-10T00:33:19;9.20;;;8.30;;
33190;SDS011;19554;42.652;23.364;2023-05-10T00:35:44;8.57;;;7.78;;
33190;SDS011;19554;42.652;23.364;2023-05-10T00:38:09;9.18;;;8.15;;
33190;SDS011;19554;42.652;23.364;2023-05-10T00:40:35;8.88;;;8.00;;
33190;SDS011;19554;42.652;23.364;2023-05-10T00:43:02;9.40;;;8.25;;
33190;SDS011;19554;42.652;23.364;2023-05-10T00:45:28;10.90;;;8.43;;
33190;SDS011;19554;42.652;23.364;2023-05-10T00:47:54;8.95;;;8.02;;
33190;SDS011;19554;42.652;23.364;2023-05-10T00:50:23;8.98;;;7.63;;
33190;SDS011;19554;42.652;23.364;2023-05-10T00:52:49;9.48;;;8.52;;
33190;SDS011;19554;42.652;23.364;2023-05-10T00:55:15;11.05;;;9.40;;
33190;SDS011;19554;42.652;23.364;2023-05-10T00:57:40;11.45;;;9.52;;
33190;SDS011;19554;42.652;23.364;2023-05-10T01:00:06;10.07;;;8.10;;
33190;SDS011;19554;42.652;23.364;2023-05-10T01:02:33;11.20;;;9.45;;
33190;SDS011;19554;42.652;23.364;2023-05-10T01:04:59;9.48;;;8.48;;
33190;SDS011;19554;42.652;23.364;2023-05-10T01:07:25;10.18;;;9.07;;
33190;SDS011;19554;42.652;23.364;2023-05-10T01:09:50;10.90;;;9.25;;
33190;SDS011;19554;42.652;23.364;2023-05-10T01:12:16;9.82;;;8.82;;
33190;SDS011;19554;42.652;23.364;2023-05-10T01:14:41;11.48;;;8.73;;
33190;SDS011;19554;42.652;23.364;2023-05-10T01:17:07;11.10;;;9.93;;
33190;SDS011;19554;42.652;23.364;2023-05-10T01:19:34;11.73;;;7.80;;
33190;SDS011;19554;42.652;23.364;2023-05-10T01:32:52;8.70;;;7.53;;
33190;SDS011;19554;42.652;23.364;2023-05-10T01:35:43;8.00;;;7.20;;
33190;SDS011;19554;42.652;23.364;2023-05-10T01:43:26;6.82;;;6.13;;
33190;SDS011;19554;42.652;23.364;2023-05-10T01:46:03;7.93;;;6.40;;
33190;SDS011;19554;42.652;23.364;2023-05-10T01:48:40;7.72;;;6.82;;
33190;SDS011;19554;42.652;23.364;2023-05-10T01:51:12;6.57;;;5.68;;
33190;SDS011;19554;42.652;23.364;2023-05-10T01:53:41;8.40;;;5.60;;
33190;SDS011;19554;42.652;23.364;2023-05-10T01:56:08;5.40;;;4.85;;
33190;SDS011;19554;42.652;23.364;2023-05-10T01:58:35;6.13;;;5.53;;
33190;SDS011;19554;42.652;23.364;2023-05-10T02:01:05;5.68;;;5.18;;
33190;SDS011;19554;42.652;23.364;2023-05-10T02:03:33;5.88;;;5.32;;
33190;SDS011;19554;42.652;23.364;2023-05-10T02:06:01;6.88;;;6.18;;
33190;SDS011;19554;42.652;23.364;2023-05-10T02:08:28;6.63;;;5.90;;
33190;SDS011;19554;42.652;23.364;2023-05-10T02:10:55;6.28;;;4.90;;
33190;SDS011;19554;42.652;23.364;2023-05-10T02:13:22;5.85;;;5.25;;
33190;SDS011;19554;42.652;23.364;2023-05-10T02:15:49;7.40;;;5.43;;
33190;SDS011;19554;42.652;23.364;2023-05-10T02:18:16;5.82;;;5.22;;
33190;SDS011;19554;42.652;23.364;2023-05-10T02:20:44;13.05;;;4.90;;
33190;SDS011;19554;42.652;23.364;2023-05-10T02:23:11;6.53;;;5.50;;
33190;SDS011;19554;42.652;23.364;2023-05-10T02:25:38;7.38;;;5.53;;
33190;SDS011;19554;42.652;23.364;2023-05-10T02:28:05;8.27;;;5.32;;
33190;SDS011;19554;42.652;23.364;2023-05-10T02:30:32;6.35;;;4.75;;
33190;SDS011;19554;42.652;23.364;2023-05-10T02:32:59;7.47;;;5.60;;
33190;SDS011;19554;42.652;23.364;2023-05-10T02:35:27;9.30;;;6.00;;
33190;SDS011;19554;42.652;23.364;2023-05-10T02:37:53;8.15;;;5.78;;
33190;SDS011;19554;42.652;23.364;2023-05-10T02:40:19;6.93;;;5.53;;
33190;SDS011;19554;42.652;23.364;2023-05-10T02:42:47;10.43;;;4.57;;
33190;SDS011;19554;42.652;23.364;2023-05-10T02:45:17;9.57;;;5.68;;
33190;SDS011;19554;42.652;23.364;2023-05-10T02:47:45;11.85;;;6.05;;
33190;SDS011;19554;42.652;23.364;2023-05-10T02:50:11;8.73;;;5.30;;
33190;SDS011;19554;42.652;23.364;2023-05-10T02:52:38;9.07;;;4.90;;
33190;SDS011;19554;42.652;23.364;2023-05-10T02:55:16;8.45;;;5.68;;
33190;SDS011;19554;42.652;23.364;2023-05-10T02:57:48;8.10;;;5.47;;
33190;SDS011;19554;42.652;23.364;2023-05-10T03:02:42;10.43;;;6.05;;
33190;SDS011;19554;42.652;23.364;2023-05-10T03:05:07;13.48;;;6.35;;
33190;SDS011;19554;42.652;23.364;2023-05-10T03:07:33;9.75;;;6.68;;
33190;SDS011;19554;42.652;23.364;2023-05-10T03:09:58;13.07;;;7.00;;
33190;SDS011;19554;42.652;23.364;2023-05-10T03:15:11;7.00;;;5.70;;
33190;SDS011;19554;42.652;23.364;2023-05-10T03:20:29;6.38;;;4.45;;
33190;SDS011;19554;42.652;23.364;2023-05-10T03:23:02;7.70;;;5.60;;
33190;SDS011;19554;42.652;23.364;2023-05-10T03:25:32;8.43;;;5.07;;
33190;SDS011;19554;42.652;23.364;2023-05-10T03:27:59;7.70;;;5.65;;
33190;SDS011;19554;42.652;23.364;2023-05-10T03:30:27;7.35;;;6.13;;
33190;SDS011;19554;42.652;23.364;2023-05-10T03:32:53;9.27;;;5.57;;
33190;SDS011;19554;42.652;23.364;2023-05-10T03:35:19;7.78;;;6.53;;
33190;SDS011;19554;42.652;23.364;2023-05-10T03:37:44;9.25;;;5.85;;
33190;SDS011;19554;42.652;23.364;2023-05-10T03:40:10;8.60;;;6.30;;
33190;SDS011;19554;42.652;23.364;2023-05-10T03:42:35;9.73;;;5.70;;
33190;SDS011;19554;42.652;23.364;2023-05-10T03:45:01;8.25;;;5.57;;
33190;SDS011;19554;42.652;23.364;2023-05-10T03:47:27;6.40;;;5.38;;
33190;SDS011;19554;42.652;23.364;2023-05-10T03:49:52;5.95;;;5.32;;
33190;SDS011;19554;42.652;23.364;2023-05-10T03:52:17;8.27;;;6.05;;
33190;SDS011;19554;42.652;23.364;2023-05-10T03:54:43;7.45;;;5.68;;
33190;SDS011;19554;42.652;23.364;2023-05-10T03:57:08;7.80;;;5.60;;
33190;SDS011;19554;42.652;23.364;2023-05-10T03:59:34;7.93;;;6.43;;
33190;SDS011;19554;42.652;23.364;2023-05-10T04:02:00;6.18;;;5.25;;
33190;SDS011;19554;42.652;23.364;2023-05-10T04:04:25;9.40;;;6.00;;
33190;SDS011;19554;42.652;23.364;2023-05-10T04:06:50;7.32;;;5.40;;
33190;SDS011;19554;42.652;23.364;2023-05-10T04:09:16;6.68;;;5.28;;
33190;SDS011;19554;42.652;23.364;2023-05-10T04:11:42;8.85;;;5.78;;
33190;SDS011;19554;42.652;23.364;2023-05-10T04:14:07;12.60;;;6.13;;
33190;SDS011;19554;42.652;23.364;2023-05-10T04:16:33;8.43;;;6.45;;
33190;SDS011;19554;42.652;23.364;2023-05-10T04:18:58;9.77;;;6.22;;
33190;SDS011;19554;42.652;23.364;2023-05-10T04:21:24;8.07;;;5.78;;
33190;SDS011;19554;42.652;23.364;2023-05-10T04:23:50;10.05;;;6.25;;
33190;SDS011;19554;42.652;23.364;2023-05-10T04:26:15;9.50;;;6.53;;
33190;SDS011;19554;42.652;23.364;2023-05-10T04:28:41;8.93;;;6.50;;
33190;SDS011;19554;42.652;23.364;2023-05-10T04:31:07;9.23;;;6.03;;
33190;SDS011;19554;42.652;23.364;2023-05-10T04:33:33;8.07;;;6.15;;
33190;SDS011;19554;42.652;23.364;2023-05-10T04:35:59;8.88;;;6.50;;
33190;SDS011;19554;42.652;23.364;2023-05-10T04:38:25;12.55;;;7.32;;
33190;SDS011;19554;42.652;23.364;2023-05-10T04:40:51;12.05;;;7.28;;
33190;SDS011;19554;42.652;23.364;2023-05-10T04:43:17;10.52;;;7.30;;
33190;SDS011;19554;42.652;23.364;2023-05-10T04:45:43;9.90;;;6.80;;
33190;SDS011;19554;42.652;23.364;2023-05-10T04:48:08;9.23;;;6.97;;
33190;SDS011;19554;42.652;23.364;2023-05-10T04:50:34;9.05;;;6.80;;
33190;SDS011;19554;42.652;23.364;2023-05-10T04:52:59;10.82;;;7.40;;
33190;SDS011;19554;42.652;23.364;2023-05-10T04:55:25;9.05;;;6.38;;
33190;SDS011;19554;42.652;23.364;2023-05-10T04:57:51;13.13;;;8.10;;
33190;SDS011;19554;42.652;23.364;2023-05-10T05:00:17;9.85;;;7.25;;
33190;SDS011;19554;42.652;23.364;2023-05-10T05:02:43;10.25;;;7.07;;
33190;SDS011;19554;42.652;23.364;2023-05-10T05:05:10;8.88;;;6.88;;
33190;SDS011;19554;42.652;23.364;2023-05-10T05:07:36;8.75;;;5.93;;
33190;SDS011;19554;42.652;23.364;2023-05-10T05:10:03;8.63;;;6.97;;
33190;SDS011;19554;42.652;23.364;2023-05-10T05:12:31;13.57;;;8.40;;
33190;SDS011;19554;42.652;23.364;2023-05-10T05:14:57;11.45;;;7.75;;
33190;SDS011;19554;42.652;23.364;2023-05-10T05:17:22;8.50;;;6.65;;
33190;SDS011;19554;42.652;23.364;2023-05-10T05:19:48;11.02;;;8.18;;
33190;SDS011;19554;42.652;23.364;2023-05-10T05:22:13;12.93;;;8.73;;
33190;SDS011;19554;42.652;23.364;2023-05-10T05:24:38;11.40;;;8.48;;
33190;SDS011;19554;42.652;23.364;2023-05-10T05:27:04;11.65;;;8.10;;
33190;SDS011;19554;42.652;23.364;2023-05-10T05:29:29;10.75;;;7.78;;
33190;SDS011;19554;42.652;23.364;2023-05-10T05:31:55;11.70;;;8.35;;
33190;SDS011;19554;42.652;23.364;2023-05-10T05:34:20;13.70;;;8.55;;
33190;SDS011;19554;42.652;23.364;2023-05-10T05:36:46;10.90;;;8.68;;
33190;SDS011;19554;42.652;23.364;2023-05-10T05:39:12;12.73;;;8.60;;
33190;SDS011;19554;42.652;23.364;2023-05-10T05:41:37;13.52;;;9.15;;
33190;SDS011;19554;42.652;23.364;2023-05-10T05:44:03;13.40;;;9.55;;
33190;SDS011;19554;42.652;23.364;2023-05-10T05:46:28;10.93;;;8.85;;
33190;SDS011;19554;42.652;23.364;2023-05-10T05:48:53;12.60;;;9.07;;
33190;SDS011;19554;42.652;23.364;2023-05-10T05:51:19;12.27;;;9.18;;
33190;SDS011;19554;42.652;23.364;2023-05-10T05:53:45;12.60;;;9.07;;
33190;SDS011;19554;42.652;23.364;2023-05-10T05:56:10;11.57;;;8.43;;
33190;SDS011;19554;42.652;23.364;2023-05-10T05:58:35;14.38;;;10.18;;
33190;SDS011;19554;42.652;23.364;2023-05-10T06:01:01;14.88;;;10.23;;
33190;SDS011;19554;42.652;23.364;2023-05-10T06:03:26;13.05;;;10.15;;
33190;SDS011;19554;42.652;23.364;2023-05-10T06:05:52;14.85;;;10.10;;
33190;SDS011;19554;42.652;23.364;2023-05-10T06:08:17;15.75;;;10.15;;
33190;SDS011;19554;42.652;23.364;2023-05-10T06:10:42;16.88;;;11.13;;
33190;SDS011;19554;42.652;23.364;2023-05-10T06:13:08;14.65;;;10.30;;
33190;SDS011;19554;42.652;23.364;2023-05-10T06:15:33;16.13;;;10.80;;
33190;SDS011;19554;42.652;23.364;2023-05-10T06:17:59;17.63;;;11.80;;
33190;SDS011;19554;42.652;23.364;2023-05-10T06:20:25;18.52;;;12.68;;
33190;SDS011;19554;42.652;23.364;2023-05-10T06:22:50;14.35;;;10.75;;
33190;SDS011;19554;42.652;23.364;2023-05-10T06:25:16;13.82;;;10.57;;
33190;SDS011;19554;42.652;23.364;2023-05-10T06:27:43;14.73;;;11.05;;
33190;SDS011;19554;42.652;23.364;2023-05-10T06:30:08;19.30;;;11.88;;
33190;SDS011;19554;42.652;23.364;2023-05-10T06:32:34;25.88;;;11.73;;
33190;SDS011;19554;42.652;23.364;2023-05-10T06:35:00;15.07;;;10.98;;
33190;SDS011;19554;42.652;23.364;2023-05-10T06:37:25;15.45;;;11.00;;
33190;SDS011;19554;42.652;23.364;2023-05-10T06:39:50;15.15;;;10.60;;
33190;SDS011;19554;42.652;23.364;2023-05-10T06:42:16;17.55;;;9.68;;
33190;SDS011;19554;42.652;23.364;2023-05-10T06:44:41;13.30;;;9.30;;
33190;SDS011;19554;42.652;23.364;2023-05-10T06:47:07;13.90;;;9.95;;
33190;SDS011;19554;42.652;23.364;2023-05-10T06:49:32;14.18;;;8.93;;
33190;SDS011;19554;42.652;23.364;2023-05-10T06:51:57;15.18;;;10.95;;
33190;SDS011;19554;42.652;23.364;2023-05-10T06:54:23;14.32;;;9.60;;
33190;SDS011;19554;42.652;23.364;2023-05-10T06:56:48;15.80;;;9.38;;
33190;SDS011;19554;42.652;23.364;2023-05-10T06:59:14;11.98;;;9.30;;
33190;SDS011;19554;42.652;23.364;2023-05-10T07:01:41;12.25;;;8.45;;
33190;SDS011;19554;42.652;23.364;2023-05-10T07:04:07;10.60;;;6.88;;
33190;SDS011;19554;42.652;23.364;2023-05-10T07:06:32;14.60;;;10.43;;
33190;SDS011;19554;42.652;23.364;2023-05-10T07:08:58;16.33;;;9.77;;
33190;SDS011;19554;42.652;23.364;2023-05-10T07:11:24;15.00;;;10.90;;
33190;SDS011;19554;42.652;23.364;2023-05-10T07:13:49;15.32;;;10.27;;
33190;SDS011;19554;42.652;23.364;2023-05-10T07:16:14;15.75;;;10.02;;
33190;SDS011;19554;42.652;23.364;2023-05-10T07:18:40;11.50;;;9.15;;
33190;SDS011;19554;42.652;23.364;2023-05-10T07:21:05;16.92;;;10.88;;
33190;SDS011;19554;42.652;23.364;2023-05-10T07:23:31;17.90;;;9.82;;
33190;SDS011;19554;42.652;23.364;2023-05-10T07:25:56;11.13;;;8.40;;
33190;SDS011;19554;42.652;23.364;2023-05-10T07:28:22;11.82;;;9.40;;
33190;SDS011;19554;42.652;23.364;2023-05-10T07:30:49;11.65;;;9.18;;
33190;SDS011;19554;42.652;23.364;2023-05-10T07:33:14;14.10;;;9.77;;
33190;SDS011;19554;42.652;23.364;2023-05-10T07:35:40;13.82;;;10.27;;
33190;SDS011;19554;42.652;23.364;2023-05-10T07:38:06;14.80;;;10.63;;
33190;SDS011;19554;42.652;23.364;2023-05-10T07:40:32;12.60;;;10.43;;
33190;SDS011;19554;42.652;23.364;2023-05-10T07:42:57;12.27;;;10.02;;
33190;SDS011;19554;42.652;23.364;2023-05-10T07:45:23;15.77;;;10.57;;
33190;SDS011;19554;42.652;23.364;2023-05-10T07:47:49;14.02;;;10.25;;
33190;SDS011;19554;42.652;23.364;2023-05-10T07:50:14;14.02;;;11.00;;
33190;SDS011;19554;42.652;23.364;2023-05-10T07:52:40;13.23;;;10.02;;
33190;SDS011;19554;42.652;23.364;2023-05-10T07:55:06;15.55;;;11.77;;
33190;SDS011;19554;42.652;23.364;2023-05-10T07:57:35;16.17;;;11.15;;
33190;SDS011;19554;42.652;23.364;2023-05-10T08:00:01;24.90;;;12.40;;
33190;SDS011;19554;42.652;23.364;2023-05-10T08:02:27;14.88;;;11.23;;
33190;SDS011;19554;42.652;23.364;2023-05-10T08:04:53;15.98;;;11.23;;
33190;SDS011;19554;42.652;23.364;2023-05-10T08:07:18;18.27;;;12.30;;
33190;SDS011;19554;42.652;23.364;2023-05-10T08:09:44;15.05;;;11.43;;
33190;SDS011;19554;42.652;23.364;2023-05-10T08:12:09;15.70;;;11.57;;
33190;SDS011;19554;42.652;23.364;2023-05-10T08:14:35;15.18;;;11.88;;
33190;SDS011;19554;42.652;23.364;2023-05-10T08:17:01;21.02;;;11.43;;
33190;SDS011;19554;42.652;23.364;2023-05-10T08:19:28;15.15;;;10.75;;
33190;SDS011;19554;42.652;23.364;2023-05-10T08:21:53;14.38;;;11.02;;
33190;SDS011;19554;42.652;23.364;2023-05-10T08:24:20;14.38;;;10.85;;
33190;SDS011;19554;42.652;23.364;2023-05-10T08:26:46;12.93;;;11.00;;
33190;SDS011;19554;42.652;23.364;2023-05-10T08:29:12;18.63;;;11.55;;
33190;SDS011;19554;42.652;23.364;2023-05-10T08:31:37;15.48;;;10.52;;
33190;SDS011;19554;42.652;23.364;2023-05-10T08:34:03;17.65;;;10.85;;
33190;SDS011;19554;42.652;23.364;2023-05-10T08:36:28;13.88;;;10.02;;
33190;SDS011;19554;42.652;23.364;2023-05-10T08:38:54;18.67;;;11.45;;
33190;SDS011;19554;42.652;23.364;2023-05-10T08:41:19;14.85;;;10.95;;
33190;SDS011;19554;42.652;23.364;2023-05-10T08:43:46;17.90;;;10.82;;
33190;SDS011;19554;42.652;23.364;2023-05-10T08:46:14;14.35;;;11.27;;
33190;SDS011;19554;42.652;23.364;2023-05-10T08:48:44;16.02;;;11.15;;
33190;SDS011;19554;42.652;23.364;2023-05-10T08:51:14;15.80;;;12.25;;
33190;SDS011;19554;42.652;23.364;2023-05-10T08:53:43;14.32;;;11.38;;
33190;SDS011;19554;42.652;23.364;2023-05-10T08:56:09;15.13;;;10.93;;
33190;SDS011;19554;42.652;23.364;2023-05-10T08:58:34;15.65;;;11.73;;
33190;SDS011;19554;42.652;23.364;2023-05-10T09:01:01;17.27;;;10.65;;
33190;SDS011;19554;42.652;23.364;2023-05-10T09:03:27;13.95;;;11.60;;
33190;SDS011;19554;42.652;23.364;2023-05-10T09:05:52;16.10;;;12.10;;
33190;SDS011;19554;42.652;23.364;2023-05-10T09:08:18;13.13;;;10.90;;
33190;SDS011;19554;42.652;23.364;2023-05-10T09:10:45;17.95;;;11.10;;
33190;SDS011;19554;42.652;23.364;2023-05-10T09:13:12;14.98;;;12.10;;
33190;SDS011;19554;42.652;23.364;2023-05-10T09:15:40;19.77;;;12.57;;
33190;SDS011;19554;42.652;23.364;2023-05-10T09:18:06;16.88;;;11.90;;
33190;SDS011;19554;42.652;23.364;2023-05-10T09:20:31;18.48;;;13.45;;
33190;SDS011;19554;42.652;23.364;2023-05-10T09:22:56;16.35;;;12.70;;
33190;SDS011;19554;42.652;23.364;2023-05-10T09:25:22;19.65;;;12.27;;
33190;SDS011;19554;42.652;23.364;2023-05-10T09:27:47;16.25;;;12.23;;
33190;SDS011;19554;42.652;23.364;2023-05-10T09:30:17;20.88;;;12.73;;
33190;SDS011;19554;42.652;23.364;2023-05-10T09:32:52;17.27;;;12.43;;
33190;SDS011;19554;42.652;23.364;2023-05-10T09:35:20;14.82;;;11.98;;
33190;SDS011;19554;42.652;23.364;2023-05-10T09:37:49;16.88;;;11.90;;
33190;SDS011;19554;42.652;23.364;2023-05-10T09:40:17;13.77;;;10.70;;
33190;SDS011;19554;42.652;23.364;2023-05-10T09:42:51;12.90;;;10.98;;
33190;SDS011;19554;42.652;23.364;2023-05-10T09:45:16;18.13;;;11.95;;
33190;SDS011;19554;42.652;23.364;2023-05-10T09:47:42;13.55;;;10.90;;
33190;SDS011;19554;42.652;23.364;2023-05-10T09:50:07;12.15;;;9.40;;
33190;SDS011;19554;42.652;23.364;2023-05-10T09:52:52;17.85;;;10.88;;
33190;SDS011;19554;42.652;23.364;2023-05-10T09:55:20;13.25;;;10.35;;
33190;SDS011;19554;42.652;23.364;2023-05-10T09:57:47;13.73;;;9.77;;
33190;SDS011;19554;42.652;23.364;2023-05-10T10:00:20;13.45;;;10.77;;
33190;SDS011;19554;42.652;23.364;2023-05-10T10:02:54;13.82;;;11.05;;
33190;SDS011;19554;42.652;23.364;2023-05-10T10:05:30;14.25;;;10.60;;
33190;SDS011;19554;42.652;23.364;2023-05-10T10:07:57;18.10;;;12.05;;
33190;SDS011;19554;42.652;23.364;2023-05-10T10:10:23;14.00;;;10.40;;
33190;SDS011;19554;42.652;23.364;2023-05-10T10:12:50;16.88;;;10.80;;
33190;SDS011;19554;42.652;23.364;2023-05-10T10:15:15;14.13;;;10.88;;
33190;SDS011;19554;42.652;23.364;2023-05-10T10:17:41;17.75;;;10.70;;
33190;SDS011;19554;42.652;23.364;2023-05-10T10:20:08;15.90;;;10.85;;
33190;SDS011;19554;42.652;23.364;2023-05-10T10:22:34;17.33;;;10.45;;
33190;SDS011;19554;42.652;23.364;2023-05-10T10:25:01;15.95;;;10.88;;
33190;SDS011;19554;42.652;23.364;2023-05-10T10:30:16;18.73;;;10.63;;
33190;SDS011;19554;42.652;23.364;2023-05-10T10:33:24;12.93;;;9.20;;
33190;SDS011;19554;42.652;23.364;2023-05-10T10:35:57;12.30;;;9.23;;
33190;SDS011;19554;42.652;23.364;2023-05-10T10:38:25;13.00;;;9.27;;
33190;SDS011;19554;42.652;23.364;2023-05-10T10:41:03;14.43;;;8.88;;
33190;SDS011;19554;42.652;23.364;2023-05-10T10:43:34;9.77;;;8.32;;
33190;SDS011;19554;42.652;23.364;2023-05-10T10:46:13;11.57;;;8.73;;
33190;SDS011;19554;42.652;23.364;2023-05-10T10:48:41;17.83;;;10.63;;
33190;SDS011;19554;42.652;23.364;2023-05-10T10:51:13;16.30;;;8.80;;
33190;SDS011;19554;42.652;23.364;2023-05-10T10:53:39;16.17;;;9.30;;
33190;SDS011;19554;42.652;23.364;2023-05-10T10:56:12;12.02;;;9.07;;
33190;SDS011;19554;42.652;23.364;2023-05-10T10:58:40;11.07;;;8.13;;
33190;SDS011;19554;42.652;23.364;2023-05-10T11:01:10;16.88;;;9.45;;
33190;SDS011;19554;42.652;23.364;2023-05-10T11:03:36;13.23;;;8.73;;
33190;SDS011;19554;42.652;23.364;2023-05-10T11:06:01;15.65;;;7.82;;
33190;SDS011;19554;42.652;23.364;2023-05-10T11:08:31;13.13;;;8.02;;
33190;SDS011;19554;42.652;23.364;2023-05-10T11:13:33;11.40;;;8.30;;
33190;SDS011;19554;42.652;23.364;2023-05-10T11:16:18;12.93;;;8.82;;
33190;SDS011;19554;42.652;23.364;2023-05-10T11:19:18;15.80;;;8.43;;
33190;SDS011;19554;42.652;23.364;2023-05-10T11:21:48;19.50;;;9.43;;
33190;SDS011;19554;42.652;23.364;2023-05-10T11:24:21;8.70;;;7.80;;
33190;SDS011;19554;42.652;23.364;2023-05-10T11:26:51;12.35;;;8.77;;
33190;SDS011;19554;42.652;23.364;2023-05-10T11:29:16;11.27;;;8.15;;
33190;SDS011;19554;42.652;23.364;2023-05-10T11:31:43;13.15;;;9.75;;
33190;SDS011;19554;42.652;23.364;2023-05-10T11:34:09;14.23;;;9.55;;
33190;SDS011;19554;42.652;23.364;2023-05-10T11:36:36;12.52;;;9.45;;
33190;SDS011;19554;42.652;23.364;2023-05-10T11:39:02;13.80;;;8.10;;
33190;SDS011;19554;42.652;23.364;2023-05-10T11:41:28;14.05;;;7.90;;
33190;SDS011;19554;42.652;23.364;2023-05-10T11:43:55;14.95;;;9.15;;
33190;SDS011;19554;42.652;23.364;2023-05-10T11:46:22;13.75;;;8.05;;
33190;SDS011;19554;42.652;23.364;2023-05-10T11:48:49;16.70;;;8.32;;
33190;SDS011;19554;42.652;23.364;2023-05-10T11:51:19;13.80;;;8.40;;
33190;SDS011;19554;42.652;23.364;2023-05-10T11:53:49;11.18;;;7.68;;
33190;SDS011;19554;42.652;23.364;2023-05-10T11:56:16;12.50;;;8.57;;
33190;SDS011;19554;42.652;23.364;2023-05-10T11:58:41;16.83;;;8.85;;
33190;SDS011;19554;42.652;23.364;2023-05-10T12:01:07;12.45;;;9.25;;
33190;SDS011;19554;42.652;23.364;2023-05-10T12:03:34;14.73;;;9.30;;
33190;SDS011;19554;42.652;23.364;2023-05-10T12:06:00;14.90;;;9.23;;
33190;SDS011;19554;42.652;23.364;2023-05-10T12:08:27;17.67;;;10.70;;
33190;SDS011;19554;42.652;23.364;2023-05-10T12:10:53;17.65;;;10.88;;
33190;SDS011;19554;42.652;23.364;2023-05-10T12:13:28;14.88;;;10.73;;
33190;SDS011;19554;42.652;23.364;2023-05-10T12:15:54;15.60;;;10.43;;
33190;SDS011;19554;42.652;23.364;2023-05-10T12:18:22;16.30;;;9.70;;
33190;SDS011;19554;42.652;23.364;2023-05-10T12:20:51;14.50;;;8.85;;
33190;SDS011;19554;42.652;23.364;2023-05-10T12:23:18;12.68;;;8.90;;
33190;SDS011;19554;42.652;23.364;2023-05-10T12:25:45;15.35;;;9.65;;
33190;SDS011;19554;42.652;23.364;2023-05-10T12:28:11;17.52;;;10.43;;
33190;SDS011;19554;42.652;23.364;2023-05-10T12:30:37;16.05;;;9.82;;
33190;SDS011;19554;42.652;23.364;2023-05-10T12:33:10;12.57;;;10.20;;
33190;SDS011;19554;42.652;23.364;2023-05-10T12:35:58;16.65;;;11.15;;
33190;SDS011;19554;42.652;23.364;2023-05-10T12:38:27;18.30;;;10.63;;
33190;SDS011;19554;42.652;23.364;2023-05-10T12:40:55;12.85;;;9.10;;
33190;SDS011;19554;42.652;23.364;2023-05-10T12:43:21;13.02;;;8.45;;
33190;SDS011;19554;42.652;23.364;2023-05-10T12:45:46;11.63;;;8.55;;
33190;SDS011;19554;42.652;23.364;2023-05-10T12:48:13;17.50;;;9.45;;
33190;SDS011;19554;42.652;23.364;2023-05-10T12:50:42;14.18;;;9.07;;
33190;SDS011;19554;42.652;23.364;2023-05-10T12:53:07;15.55;;;9.45;;
33190;SDS011;19554;42.652;23.364;2023-05-10T12:55:32;11.80;;;8.48;;
33190;SDS011;19554;42.652;23.364;2023-05-10T12:57:58;13.00;;;9.73;;
33190;SDS011;19554;42.652;23.364;2023-05-10T13:00:23;18.40;;;9.82;;
33190;SDS011;19554;42.652;23.364;2023-05-10T13:02:49;13.80;;;9.00;;
33190;SDS011;19554;42.652;23.364;2023-05-10T13:05:14;14.63;;;8.40;;
33190;SDS011;19554;42.652;23.364;2023-05-10T13:07:40;16.67;;;9.05;;
33190;SDS011;19554;42.652;23.364;2023-05-10T13:10:05;14.43;;;9.50;;
33190;SDS011;19554;42.652;23.364;2023-05-10T13:12:31;16.40;;;9.43;;
33190;SDS011;19554;42.652;23.364;2023-05-10T13:14:57;17.48;;;9.45;;
33190;SDS011;19554;42.652;23.364;2023-05-10T13:17:25;11.85;;;8.07;;
33190;SDS011;19554;42.652;23.364;2023-05-10T13:19:50;14.95;;;8.32;;
33190;SDS011;19554;42.652;23.364;2023-05-10T13:22:15;13.88;;;8.38;;
33190;SDS011;19554;42.652;23.364;2023-05-10T13:24:41;12.88;;;8.63;;
33190;SDS011;19554;42.652;23.364;2023-05-10T13:27:06;12.90;;;8.23;;
33190;SDS011;19554;42.652;23.364;2023-05-10T13:29:32;14.10;;;8.20;;
33190;SDS011;19554;42.652;23.364;2023-05-10T13:31:57;10.32;;;7.80;;
33190;SDS011;19554;42.652;23.364;2023-05-10T13:34:23;11.13;;;7.60;;
33190;SDS011;19554;42.652;23.364;2023-05-10T13:36:49;10.85;;;8.20;;
33190;SDS011;19554;42.652;23.364;2023-05-10T13:39:14;15.27;;;8.48;;
33190;SDS011;19554;42.652;23.364;2023-05-10T13:41:40;13.32;;;8.13;;
33190;SDS011;19554;42.652;23.364;2023-05-10T13:44:05;11.02;;;7.93;;
33190;SDS011;19554;42.652;23.364;2023-05-10T13:46:30;22.50;;;8.77;;
33190;SDS011;19554;42.652;23.364;2023-05-10T13:48:56;10.55;;;7.57;;
33190;SDS011;19554;42.652;23.364;2023-05-10T13:51:22;13.35;;;8.30;;
33190;SDS011;19554;42.652;23.364;2023-05-10T13:53:47;13.27;;;9.10;;
33190;SDS011;19554;42.652;23.364;2023-05-10T13:59:03;10.98;;;8.63;;
33190;SDS011;19554;42.652;23.364;2023-05-10T14:01:28;15.05;;;8.98;;
33190;SDS011;19554;42.652;23.364;2023-05-10T14:03:54;12.85;;;7.97;;
33190;SDS011;19554;42.652;23.364;2023-05-10T14:06:19;17.02;;;9.38;;
33190;SDS011;19554;42.652;23.364;2023-05-10T14:08:45;16.67;;;9.07;;
33190;SDS011;19554;42.652;23.364;2023-05-10T14:11:10;10.70;;;9.20;;
33190;SDS011;19554;42.652;23.364;2023-05-10T14:13:36;13.45;;;8.35;;
33190;SDS011;19554;42.652;23.364;2023-05-10T14:16:02;12.38;;;8.18;;
33190;SDS011;19554;42.652;23.364;2023-05-10T14:18:27;12.30;;;8.00;;
33190;SDS011;19554;42.652;23.364;2023-05-10T14:20:53;13.55;;;9.00;;
33190;SDS011;19554;42.652;23.364;2023-05-10T14:23:19;12.05;;;9.10;;
33190;SDS011;19554;42.652;23.364;2023-05-10T14:25:52;12.93;;;7.93;;
33190;SDS011;19554;42.652;23.364;2023-05-10T14:28:17;13.90;;;9.23;;
33190;SDS011;19554;42.652;23.364;2023-05-10T14:30:43;22.67;;;8.80;;
33190;SDS011;19554;42.652;23.364;2023-05-10T14:33:09;11.48;;;8.57;;
33190;SDS011;19554;42.652;23.364;2023-05-10T14:35:35;12.45;;;8.90;;
33190;SDS011;19554;42.652;23.364;2023-05-10T14:38:01;12.73;;;9.10;;
33190;SDS011;19554;42.652;23.364;2023-05-10T14:40:28;13.23;;;8.27;;
33190;SDS011;19554;42.652;23.364;2023-05-10T14:42:53;17.65;;;8.70;;
33190;SDS011;19554;42.652;23.364;2023-05-10T14:45:19;12.70;;;8.32;;
33190;SDS011;19554;42.652;23.364;2023-05-10T14:47:45;11.45;;;8.93;;
33190;SDS011;19554;42.652;23.364;2023-05-10T14:50:11;13.57;;;8.85;;
33190;SDS011;19554;42.652;23.364;2023-05-10T14:55:57;19.67;;;9.13;;